Terminal Aerodrome Forecast
Issued by NWS

Home | Current Version | Previous Version | Text Only | Print | Product List | Glossary On
Versions: 1 2 3 4 5 6 7 8 9 10 11 12 13 14 15 16 17
000
FTUS44 KTSA 201209 AAA
TAFBVO
TAF AMD
KBVO 201209Z 2012/2112 18006KT P6SM FEW120 SCT250
     FM201600 19012G18KT P6SM SCT050
     FM210000 17007KT P6SM BKN050=

USA.gov is the U.S. government's official web portal to all federal, state and local government web resources and services.